createdAt,value
2019-02-15T00:00:54.286Z,23.45
2019-02-15T00:03:20.988Z,23.46
2019-02-15T00:05:47.626Z,23.46
2019-02-15T00:08:14.274Z,23.45
2019-02-15T00:10:40.941Z,23.44
2019-02-15T00:13:13.361Z,23.47
2019-02-15T00:15:34.273Z,23.41
2019-02-15T00:18:00.958Z,23.45
2019-02-15T00:20:27.601Z,23.41
2019-02-15T00:22:54.235Z,23.45
2019-02-15T00:25:20.921Z,23.44
2019-02-15T00:27:47.559Z,23.49
2019-02-15T00:30:14.205Z,23.39
2019-02-15T00:32:40.897Z,23.42
2019-02-15T00:35:07.617Z,23.39
2019-02-15T00:37:34.258Z,23.37
2019-02-15T00:40:00.898Z,23.41
2019-02-15T00:42:28.876Z,23.41
2019-02-15T00:44:54.228Z,23.37
2019-02-15T00:47:20.878Z,23.38
2019-02-15T00:49:47.522Z,23.36
2019-02-15T00:52:14.171Z,23.38
2019-02-15T00:54:40.817Z,23.35
2019-02-15T00:57:07.454Z,23.36
2019-02-15T00:59:34.095Z,23.35
2019-02-15T01:02:00.762Z,23.37
2019-02-15T01:04:27.404Z,23.35
2019-02-15T01:06:54.041Z,23.35
2019-02-15T01:09:20.690Z,23.37
2019-02-15T01:11:47.393Z,23.34
2019-02-15T01:14:14.039Z,23.34
2019-02-15T01:16:40.696Z,23.36
2019-02-15T01:19:07.358Z,23.33
2019-02-15T01:21:34.010Z,23.31
2019-02-15T01:24:00.709Z,23.31
2019-02-15T01:26:27.300Z,23.36
2019-02-15T01:28:53.954Z,23.30
2019-02-15T01:31:20.635Z,23.32
2019-02-15T01:33:47.253Z,23.32
2019-02-15T01:36:13.944Z,23.35
2019-02-15T01:38:40.695Z,23.30
2019-02-15T01:41:07.343Z,23.33
2019-02-15T01:43:39.762Z,23.31
2019-02-15T01:46:00.640Z,23.34
2019-02-15T01:48:27.351Z,23.32
2019-02-15T01:50:53.987Z,23.30
2019-02-15T01:53:20.641Z,23.32
2019-02-15T01:55:47.276Z,23.33
2019-02-15T01:58:14.008Z,23.35
2019-02-15T02:00:40.647Z,23.30
2019-02-15T02:03:07.286Z,23.32
2019-02-15T02:05:33.937Z,23.27
2019-02-15T02:08:00.571Z,23.31
2019-02-15T02:10:27.228Z,23.27
2019-02-15T02:12:53.873Z,23.33
2019-02-15T02:15:20.534Z,23.30
2019-02-15T02:17:47.173Z,23.33
2019-02-15T02:20:13.870Z,23.24
2019-02-15T02:22:40.483Z,23.33
2019-02-15T02:25:07.133Z,23.29
2019-02-15T02:27:33.768Z,23.29
2019-02-15T02:30:00.474Z,23.26
2019-02-15T02:32:27.068Z,23.28
2019-02-15T02:34:53.707Z,23.22
2019-02-15T02:37:20.362Z,23.22
2019-02-15T02:39:46.998Z,23.21
2019-02-15T02:42:13.659Z,23.25
2019-02-15T02:44:40.298Z,23.21
2019-02-15T02:47:06.953Z,23.22
2019-02-15T02:49:33.599Z,23.18
2019-02-15T02:52:00.236Z,23.22
2019-02-15T02:54:26.880Z,23.17
2019-02-15T02:56:53.540Z,23.17
2019-02-15T02:59:20.190Z,23.19
2019-02-15T03:01:46.838Z,23.18
2019-02-15T03:04:13.500Z,23.17
2019-02-15T03:06:40.153Z,23.26
2019-02-15T03:09:06.795Z,23.18
2019-02-15T03:11:33.440Z,23.18
2019-02-15T03:14:10.738Z,23.17
2019-02-15T03:16:26.745Z,23.22
2019-02-15T03:18:53.383Z,23.16
2019-02-15T03:21:20.031Z,23.20
2019-02-15T03:23:46.709Z,23.16
2019-02-15T03:26:13.366Z,23.22
2019-02-15T03:28:40.019Z,23.14
2019-02-15T03:31:06.666Z,23.24
2019-02-15T03:33:33.306Z,23.19
2019-02-15T03:35:59.954Z,23.22
2019-02-15T03:38:26.593Z,23.16
2019-02-15T03:40:53.228Z,23.18
2019-02-15T03:43:19.885Z,23.16
2019-02-15T03:45:46.529Z,23.25
2019-02-15T03:48:13.186Z,23.21
2019-02-15T03:50:39.858Z,23.21
2019-02-15T03:53:06.505Z,23.20
2019-02-15T03:55:33.199Z,23.15
2019-02-15T03:57:59.843Z,23.16
2019-02-15T04:00:26.484Z,23.16
2019-02-15T04:02:53.138Z,23.16
2019-02-15T04:05:19.780Z,23.14
2019-02-15T04:07:46.422Z,23.15
2019-02-15T04:10:13.075Z,23.13
2019-02-15T04:12:39.718Z,22.60
2019-02-15T04:15:06.365Z,22.03
2019-02-15T04:17:33.004Z,21.84
2019-02-15T04:19:59.651Z,21.40
2019-02-15T04:22:26.289Z,21.30
2019-02-15T04:24:52.939Z,21.23
2019-02-15T04:27:19.586Z,21.27
2019-02-15T04:29:46.231Z,21.52
2019-02-15T04:32:12.867Z,21.60
2019-02-15T04:34:39.526Z,21.66
2019-02-15T04:37:06.166Z,21.56
2019-02-15T04:39:32.822Z,21.96
2019-02-15T04:41:59.458Z,22.37
2019-02-15T04:44:26.122Z,22.62
2019-02-15T04:46:52.758Z,22.63
2019-02-15T04:49:19.419Z,22.63
2019-02-15T04:51:46.062Z,22.69
2019-02-15T04:54:12.709Z,22.74
2019-02-15T04:56:39.378Z,22.78
2019-02-15T04:59:06.001Z,22.82
2019-02-15T05:01:32.648Z,22.92
2019-02-15T05:03:59.292Z,22.93
2019-02-15T05:06:25.936Z,22.99
2019-02-15T05:08:52.592Z,22.98
2019-02-15T05:11:19.243Z,23.11
2019-02-15T05:13:45.933Z,23.03
2019-02-15T05:16:12.672Z,23.17
2019-02-15T05:18:39.329Z,23.19
2019-02-15T05:21:05.972Z,23.20
2019-02-15T05:23:32.659Z,23.32
2019-02-15T05:25:59.344Z,23.15
2019-02-15T05:28:25.989Z,23.16
2019-02-15T05:30:52.636Z,23.17
2019-02-15T05:33:19.277Z,23.20
2019-02-15T05:35:45.925Z,23.18
2019-02-15T05:38:12.577Z,23.14
2019-02-15T05:40:39.258Z,22.91
2019-02-15T05:43:05.901Z,22.67
2019-02-15T05:45:32.549Z,22.61
2019-02-15T05:47:59.196Z,22.76
2019-02-15T05:50:25.844Z,22.88
2019-02-15T05:52:52.516Z,22.90
2019-02-15T05:55:19.232Z,22.97
2019-02-15T05:57:45.895Z,23.00
2019-02-15T06:00:12.584Z,23.04
2019-02-15T06:02:39.303Z,23.05
2019-02-15T06:05:05.997Z,23.12
2019-02-15T06:07:32.644Z,23.15
2019-02-15T06:09:59.306Z,23.16
2019-02-15T06:12:26.020Z,23.31
2019-02-15T06:14:52.690Z,23.26
2019-02-15T06:17:19.353Z,23.38
2019-02-15T06:19:46.007Z,23.31
2019-02-15T06:22:12.673Z,23.31
2019-02-15T06:24:39.419Z,23.34
2019-02-15T06:27:06.080Z,23.34
2019-02-15T06:29:32.857Z,23.46
2019-02-15T06:31:59.563Z,23.41
2019-02-15T06:34:26.328Z,23.36
2019-02-15T06:36:52.970Z,23.43
2019-02-15T06:39:19.658Z,23.51
2019-02-15T06:41:46.316Z,23.54
2019-02-15T06:44:12.980Z,23.64
2019-02-15T06:46:39.634Z,23.58
2019-02-15T06:49:06.360Z,23.57
2019-02-15T06:51:33.011Z,23.60
2019-02-15T06:53:59.696Z,23.60
2019-02-15T06:56:26.375Z,23.66
2019-02-15T06:58:53.082Z,23.76
2019-02-15T07:01:19.868Z,23.75
2019-02-15T07:03:46.540Z,23.91
2019-02-15T07:06:13.252Z,23.85
2019-02-15T07:08:39.888Z,23.95
2019-02-15T07:11:06.593Z,23.94
2019-02-15T07:13:33.271Z,23.87
2019-02-15T07:15:59.933Z,24.00
2019-02-15T07:18:26.625Z,23.88
2019-02-15T07:20:53.281Z,24.09
2019-02-15T07:23:19.994Z,24.02
2019-02-15T07:25:46.664Z,24.01
2019-02-15T07:28:13.331Z,23.96
2019-02-15T07:30:39.989Z,23.99
2019-02-15T07:33:06.650Z,24.07
2019-02-15T07:35:33.298Z,24.04
2019-02-15T07:37:59.992Z,24.08
2019-02-15T07:40:26.663Z,23.99
2019-02-15T07:42:53.342Z,24.08
2019-02-15T07:45:20.044Z,24.01
2019-02-15T07:47:46.754Z,23.91
2019-02-15T07:50:13.439Z,23.91
2019-02-15T07:52:40.115Z,24.06
2019-02-15T07:55:06.794Z,23.98
2019-02-15T07:57:34.015Z,24.01
2019-02-15T08:00:00.723Z,24.05
2019-02-15T08:02:26.914Z,24.10
2019-02-15T08:04:53.578Z,24.12
2019-02-15T08:07:20.241Z,24.11
2019-02-15T08:09:46.902Z,24.11
2019-02-15T08:12:13.948Z,24.22
2019-02-15T08:14:40.625Z,24.09
2019-02-15T08:17:07.282Z,24.03
2019-02-15T08:19:33.957Z,24.13
2019-02-15T08:22:00.623Z,24.07
2019-02-15T08:24:27.291Z,24.11
2019-02-15T08:26:53.948Z,24.11
2019-02-15T08:29:20.637Z,24.12
2019-02-15T08:31:47.286Z,24.22
2019-02-15T08:34:13.971Z,24.08
2019-02-15T08:36:40.698Z,24.13
2019-02-15T08:39:07.355Z,24.41
2019-02-15T08:41:34.013Z,24.40
2019-02-15T08:44:00.724Z,24.34
2019-02-15T08:46:27.373Z,24.32
2019-02-15T08:48:54.054Z,24.25
2019-02-15T08:51:20.715Z,24.49
2019-02-15T08:53:47.386Z,24.42
2019-02-15T08:56:14.095Z,24.37
2019-02-15T08:58:40.787Z,24.41
2019-02-15T09:01:07.518Z,24.30
2019-02-15T09:03:34.169Z,24.20
2019-02-15T09:06:00.908Z,24.20
2019-02-15T09:08:27.563Z,24.33
2019-02-15T09:10:54.840Z,24.26
2019-02-15T09:13:21.537Z,24.14
2019-02-15T09:15:48.205Z,24.08
2019-02-15T09:18:14.882Z,24.05
2019-02-15T09:20:41.647Z,24.37
2019-02-15T09:23:08.321Z,24.19
2019-02-15T09:25:35.020Z,24.00
2019-02-15T09:28:01.684Z,24.05
2019-02-15T09:30:28.392Z,23.98
2019-02-15T09:32:55.059Z,23.99
2019-02-15T09:35:21.774Z,23.98
2019-02-15T09:37:48.460Z,24.05
2019-02-15T09:40:15.154Z,23.99
2019-02-15T09:42:41.813Z,24.00
2019-02-15T09:45:08.479Z,24.09
2019-02-15T09:47:35.196Z,24.07
2019-02-15T09:50:01.872Z,24.02
2019-02-15T09:52:28.647Z,24.05
2019-02-15T09:54:55.330Z,24.10
2019-02-15T09:57:21.994Z,24.12
2019-02-15T09:59:48.874Z,24.15
2019-02-15T10:02:15.538Z,24.06
2019-02-15T10:04:42.233Z,23.97
2019-02-15T10:07:08.903Z,23.98
2019-02-15T10:09:35.651Z,23.97
2019-02-15T10:12:02.315Z,24.05
2019-02-15T10:14:28.975Z,24.07
2019-02-15T10:16:55.651Z,23.94
2019-02-15T10:19:22.743Z,23.88
2019-02-15T10:21:48.982Z,24.07
2019-02-15T10:24:15.639Z,24.03
2019-02-15T10:26:42.315Z,23.85
2019-02-15T10:29:08.978Z,23.91
2019-02-15T10:31:35.637Z,23.86
2019-02-15T10:34:02.338Z,23.75
2019-02-15T10:36:28.993Z,23.75
2019-02-15T10:38:55.783Z,23.77
2019-02-15T10:41:22.524Z,23.80
2019-02-15T10:43:49.232Z,23.75
2019-02-15T10:46:15.874Z,23.76
2019-02-15T10:48:42.546Z,23.76
2019-02-15T10:51:09.206Z,23.88
2019-02-15T10:53:35.880Z,23.83
2019-02-15T10:56:02.587Z,23.81
2019-02-15T10:58:29.303Z,23.79
2019-02-15T11:00:55.972Z,23.82
2019-02-15T11:03:22.781Z,23.82
2019-02-15T11:05:49.477Z,23.90
2019-02-15T11:08:16.219Z,23.88
2019-02-15T11:10:42.863Z,23.87
2019-02-15T11:13:09.525Z,23.89
2019-02-15T11:15:36.205Z,23.91
2019-02-15T11:18:02.880Z,23.85
2019-02-15T11:20:29.590Z,23.85
2019-02-15T11:22:56.300Z,23.91
2019-02-15T11:25:22.964Z,23.98
2019-02-15T11:27:49.646Z,23.91
2019-02-15T11:30:16.311Z,24.12
2019-02-15T11:32:42.975Z,23.96
2019-02-15T11:35:09.658Z,24.08
2019-02-15T11:37:36.333Z,23.91
2019-02-15T11:40:02.995Z,23.94
2019-02-15T11:42:29.719Z,23.96
2019-02-15T11:44:56.393Z,23.94
2019-02-15T11:47:23.105Z,24.09
2019-02-15T11:49:49.776Z,24.13
2019-02-15T11:52:16.445Z,24.22
2019-02-15T11:54:43.114Z,24.14
2019-02-15T11:57:09.787Z,24.09
2019-02-15T11:59:37.815Z,24.14
2019-02-15T12:02:06.077Z,24.13
2019-02-15T12:04:29.863Z,24.16
2019-02-15T12:06:56.582Z,24.22
2019-02-15T12:09:23.245Z,24.34
2019-02-15T12:11:49.957Z,24.38
2019-02-15T12:14:16.626Z,24.41
2019-02-15T12:16:43.347Z,24.33
2019-02-15T12:19:10.072Z,24.26
2019-02-15T12:21:36.751Z,24.39
2019-02-15T12:24:03.427Z,24.30
2019-02-15T12:26:30.081Z,24.33
2019-02-15T12:28:56.799Z,24.43
2019-02-15T12:31:23.464Z,24.34
2019-02-15T12:33:50.133Z,24.40
2019-02-15T12:36:16.908Z,24.37
2019-02-15T12:38:43.694Z,24.40
2019-02-15T12:41:10.534Z,24.38
2019-02-15T12:43:37.264Z,24.60
2019-02-15T12:46:03.924Z,24.48
2019-02-15T12:48:32.949Z,24.43
2019-02-15T12:50:59.705Z,24.43
2019-02-15T12:53:26.594Z,24.34
2019-02-15T12:55:53.260Z,24.36
2019-02-15T12:58:19.931Z,24.28
2019-02-15T13:00:46.665Z,24.26
2019-02-15T13:03:13.407Z,24.46
2019-02-15T13:05:40.085Z,24.33
2019-02-15T13:08:06.751Z,24.32
2019-02-15T13:10:33.460Z,24.31
2019-02-15T13:13:00.156Z,24.36
2019-02-15T13:15:26.830Z,24.51
2019-02-15T13:17:53.562Z,24.48
2019-02-15T13:20:20.215Z,24.40
2019-02-15T13:22:46.910Z,24.34
2019-02-15T13:25:13.611Z,24.36
2019-02-15T13:27:40.263Z,24.50
2019-02-15T13:30:06.943Z,24.45
2019-02-15T13:32:33.651Z,24.44
2019-02-15T13:35:00.317Z,24.40
2019-02-15T13:37:27.015Z,24.41
2019-02-15T13:39:53.836Z,24.21
2019-02-15T13:42:20.499Z,24.00
2019-02-15T13:44:47.168Z,23.81
2019-02-15T13:47:13.907Z,23.70
2019-02-15T13:49:40.629Z,23.76
2019-02-15T13:52:07.298Z,23.95
2019-02-15T13:54:33.979Z,23.99
2019-02-15T13:57:00.814Z,24.01
2019-02-15T13:59:27.535Z,24.18
2019-02-15T14:01:54.294Z,24.33
2019-02-15T14:04:21.029Z,24.29
2019-02-15T14:06:47.716Z,24.16
2019-02-15T14:09:14.509Z,24.27
2019-02-15T14:11:41.261Z,24.35
2019-02-15T14:14:07.917Z,24.33
2019-02-15T14:16:34.586Z,24.40
2019-02-15T14:19:01.259Z,24.36
2019-02-15T14:21:27.988Z,24.35
2019-02-15T14:23:54.680Z,24.44
2019-02-15T14:26:21.546Z,24.48
2019-02-15T14:28:48.227Z,24.39
2019-02-15T14:31:14.871Z,24.42
2019-02-15T14:33:41.659Z,24.48
2019-02-15T14:36:08.668Z,24.51
2019-02-15T14:38:35.393Z,24.55
2019-02-15T14:41:02.033Z,24.47
2019-02-15T14:43:28.751Z,24.51
2019-02-15T14:45:55.425Z,24.45
2019-02-15T14:48:22.163Z,24.39
2019-02-15T14:50:49.244Z,24.59
2019-02-15T14:53:15.917Z,24.52
2019-02-15T14:55:42.583Z,24.32
2019-02-15T14:58:09.349Z,24.30
2019-02-15T15:00:36.008Z,24.30
2019-02-15T15:03:02.800Z,24.33
2019-02-15T15:05:29.536Z,24.30
2019-02-15T15:07:56.217Z,24.35
2019-02-15T15:10:23.578Z,24.12
2019-02-15T15:12:50.277Z,24.23
2019-02-15T15:15:16.965Z,24.22
2019-02-15T15:17:43.660Z,24.15
2019-02-15T15:20:10.329Z,24.11
2019-02-15T15:22:37.035Z,24.12
2019-02-15T15:25:03.786Z,24.10
2019-02-15T15:27:30.456Z,24.15
2019-02-15T15:29:57.124Z,24.09
2019-02-15T15:32:23.794Z,24.05
2019-02-15T15:34:50.450Z,24.09
2019-02-15T15:37:17.137Z,24.11
2019-02-15T15:39:43.797Z,24.10
2019-02-15T15:42:10.458Z,24.10
2019-02-15T15:44:37.168Z,24.16
2019-02-15T15:47:03.835Z,24.11
2019-02-15T15:49:30.494Z,24.16
2019-02-15T15:51:57.148Z,24.15
2019-02-15T15:54:23.852Z,24.21
2019-02-15T15:56:52.976Z,24.12
2019-02-15T15:59:19.649Z,23.97
2019-02-15T16:01:46.312Z,24.06
2019-02-15T16:04:12.977Z,24.04
2019-02-15T16:06:39.701Z,23.95
2019-02-15T16:09:06.359Z,23.89
2019-02-15T16:11:33.031Z,23.86
2019-02-15T16:13:59.693Z,23.94
2019-02-15T16:16:26.409Z,24.02
2019-02-15T16:18:53.139Z,23.94
2019-02-15T16:21:21.928Z,23.89
2019-02-15T16:23:46.483Z,23.87
2019-02-15T16:26:13.130Z,23.86
2019-02-15T16:28:39.833Z,23.80
2019-02-15T16:31:06.547Z,23.81
2019-02-15T16:33:33.263Z,23.86
2019-02-15T16:35:59.918Z,23.80
2019-02-15T16:38:26.590Z,23.82
2019-02-15T16:40:53.292Z,23.83
2019-02-15T16:43:20.002Z,23.83
2019-02-15T16:45:46.666Z,23.81
2019-02-15T16:48:13.326Z,23.73
2019-02-15T16:50:40.029Z,23.77
2019-02-15T16:53:06.653Z,23.74
2019-02-15T16:55:33.327Z,23.70
2019-02-15T16:57:59.982Z,23.72
2019-02-15T17:00:26.648Z,23.79
2019-02-15T17:02:53.307Z,23.88
2019-02-15T17:05:21.252Z,23.92
2019-02-15T17:07:46.661Z,23.79
2019-02-15T17:10:13.326Z,23.73
2019-02-15T17:12:39.980Z,23.74
2019-02-15T17:15:06.691Z,23.64
2019-02-15T17:17:33.420Z,23.67
2019-02-15T17:20:00.093Z,23.67
2019-02-15T17:22:26.750Z,23.63
2019-02-15T17:24:53.455Z,23.62
2019-02-15T17:27:20.123Z,23.60
2019-02-15T17:29:46.764Z,23.67
2019-02-15T17:32:13.426Z,23.73
2019-02-15T17:34:40.084Z,23.75
2019-02-15T17:37:06.745Z,23.73
2019-02-15T17:39:33.451Z,23.62
2019-02-15T17:42:00.113Z,23.59
2019-02-15T17:44:26.887Z,23.52
2019-02-15T17:46:53.550Z,23.55
2019-02-15T17:49:20.202Z,23.52
2019-02-15T17:51:46.907Z,23.56
2019-02-15T17:54:13.638Z,23.52
2019-02-15T17:56:40.298Z,23.48
2019-02-15T17:59:06.955Z,23.50
2019-02-15T18:01:33.604Z,23.52
2019-02-15T18:04:00.265Z,23.51
2019-02-15T18:06:26.918Z,23.43
2019-02-15T18:08:53.570Z,23.46
2019-02-15T18:11:20.288Z,23.43
2019-02-15T18:13:46.990Z,23.48
2019-02-15T18:16:13.652Z,23.44
2019-02-15T18:18:40.312Z,23.50
2019-02-15T18:21:07.015Z,23.44
2019-02-15T18:23:33.685Z,23.43
2019-02-15T18:26:00.371Z,23.42
2019-02-15T18:28:27.056Z,23.46
2019-02-15T18:30:53.751Z,23.41
2019-02-15T18:33:20.489Z,23.42
2019-02-15T18:35:47.138Z,23.41
2019-02-15T18:38:13.806Z,23.43
2019-02-15T18:40:40.475Z,23.39
2019-02-15T18:43:07.182Z,23.44
2019-02-15T18:45:33.836Z,23.38
2019-02-15T18:48:00.539Z,23.43
2019-02-15T18:50:27.330Z,23.40
2019-02-15T18:52:53.991Z,23.45
2019-02-15T18:55:20.656Z,23.40
2019-02-15T18:57:47.330Z,23.41
2019-02-15T19:00:14.086Z,23.35
2019-02-15T19:02:40.697Z,23.41
2019-02-15T19:05:07.358Z,23.38
2019-02-15T19:07:34.066Z,23.38
2019-02-15T19:10:00.735Z,23.36
2019-02-15T19:12:27.474Z,23.40
2019-02-15T19:14:54.118Z,23.38
2019-02-15T19:17:20.786Z,23.35
2019-02-15T19:19:47.490Z,23.34
2019-02-15T19:22:14.156Z,23.39
2019-02-15T19:24:40.847Z,23.35
2019-02-15T19:27:07.563Z,23.39
2019-02-15T19:29:34.227Z,23.34
2019-02-15T19:32:00.893Z,23.37
2019-02-15T19:34:27.627Z,23.36
2019-02-15T19:36:55.659Z,23.36
2019-02-15T19:39:20.956Z,23.35
2019-02-15T19:41:47.615Z,23.36
2019-02-15T19:44:14.261Z,23.31
2019-02-15T19:46:40.912Z,23.37
2019-02-15T19:49:07.572Z,23.32
2019-02-15T19:51:37.645Z,23.31
2019-02-15T19:54:04.314Z,23.32
2019-02-15T19:56:30.971Z,23.33
2019-02-15T19:58:57.672Z,23.29
2019-02-15T20:01:24.327Z,23.33
2019-02-15T20:03:50.998Z,23.26
2019-02-15T20:06:17.734Z,23.25
2019-02-15T20:08:44.398Z,23.31
2019-02-15T20:11:11.096Z,23.29
2019-02-15T20:13:37.814Z,23.31
2019-02-15T20:16:04.482Z,23.27
2019-02-15T20:18:31.130Z,23.28
2019-02-15T20:20:57.846Z,23.27
2019-02-15T20:23:24.498Z,23.27
2019-02-15T20:25:51.163Z,23.20
2019-02-15T20:28:17.821Z,23.28
2019-02-15T20:30:44.532Z,23.24
2019-02-15T20:33:11.268Z,23.31
2019-02-15T20:35:37.917Z,23.24
2019-02-15T20:38:04.579Z,23.25
2019-02-15T20:40:31.345Z,23.18
2019-02-15T20:42:58.077Z,23.25
2019-02-15T20:45:27.872Z,23.25
2019-02-15T20:47:54.533Z,23.27
2019-02-15T20:50:21.197Z,23.19
2019-02-15T20:52:47.858Z,23.19
2019-02-15T20:55:14.519Z,23.18
2019-02-15T20:57:41.178Z,23.24
2019-02-15T21:00:07.838Z,23.15
2019-02-15T21:02:34.772Z,23.28
2019-02-15T21:05:01.247Z,23.18
2019-02-15T21:07:27.921Z,23.20
2019-02-15T21:09:54.565Z,23.15
2019-02-15T21:12:21.239Z,23.22
2019-02-15T21:14:48.080Z,23.13
2019-02-15T21:17:14.574Z,23.22
2019-02-15T21:19:41.283Z,23.17
2019-02-15T21:22:07.970Z,23.21
2019-02-15T21:24:34.618Z,23.23
2019-02-15T21:27:01.287Z,23.25
2019-02-15T21:29:27.948Z,23.17
2019-02-15T21:31:54.611Z,23.19
2019-02-15T21:34:21.264Z,23.13
2019-02-15T21:36:47.939Z,23.16
2019-02-15T21:39:14.615Z,23.14
2019-02-15T21:41:41.302Z,23.12
2019-02-15T21:44:07.956Z,22.98
2019-02-15T21:46:34.662Z,22.81
2019-02-15T21:49:01.346Z,22.62
2019-02-15T21:51:28.055Z,22.51
2019-02-15T21:53:54.705Z,22.57
2019-02-15T21:56:21.349Z,22.69
2019-02-15T21:58:48.069Z,22.77
2019-02-15T22:01:14.760Z,22.83
2019-02-15T22:03:41.481Z,22.90
2019-02-15T22:06:08.154Z,22.92
2019-02-15T22:08:34.888Z,23.01
2019-02-15T22:11:01.626Z,23.02
2019-02-15T22:13:28.384Z,23.04
2019-02-15T22:15:55.099Z,23.04
2019-02-15T22:18:21.761Z,23.05
2019-02-15T22:20:48.411Z,23.09
2019-02-15T22:23:15.074Z,23.14
2019-02-15T22:25:41.719Z,23.08
2019-02-15T22:28:08.384Z,23.10
2019-02-15T22:30:35.032Z,23.13
2019-02-15T22:33:01.699Z,23.14
2019-02-15T22:35:28.359Z,23.12
2019-02-15T22:37:55.070Z,23.11
2019-02-15T22:40:21.734Z,23.18
2019-02-15T22:42:48.399Z,23.21
2019-02-15T22:45:15.052Z,23.15
2019-02-15T22:47:41.706Z,23.17
2019-02-15T22:50:08.378Z,23.21
2019-02-15T22:52:35.114Z,23.25
2019-02-15T22:55:01.756Z,23.16
2019-02-15T22:57:28.415Z,23.18
2019-02-15T22:59:55.081Z,23.23
2019-02-15T23:02:21.747Z,23.19
2019-02-15T23:04:48.407Z,23.18
2019-02-15T23:07:15.079Z,23.21
2019-02-15T23:09:41.830Z,23.28
2019-02-15T23:12:08.499Z,23.26
2019-02-15T23:14:35.160Z,23.27
2019-02-15T23:17:01.807Z,23.24
2019-02-15T23:19:28.468Z,23.29
2019-02-15T23:21:55.163Z,23.26
2019-02-15T23:24:21.886Z,23.30
2019-02-15T23:26:48.539Z,23.25
2019-02-15T23:29:15.196Z,23.29
2019-02-15T23:31:41.862Z,23.29
2019-02-15T23:34:08.524Z,23.27
2019-02-15T23:36:35.219Z,23.30
2019-02-15T23:39:01.891Z,23.30
2019-02-15T23:41:28.546Z,23.26
2019-02-15T23:43:55.202Z,23.28
2019-02-15T23:46:21.916Z,23.30
2019-02-15T23:48:48.577Z,23.28
2019-02-15T23:51:15.215Z,23.30
2019-02-15T23:53:41.878Z,23.35
2019-02-15T23:56:08.523Z,23.32
2019-02-15T23:58:35.234Z,23.26
